sensor_id;sensor_type;location;lat;lon;timestamp;P1;durP1;ratioP1;P2;durP2;ratioP2
25609;SDS011;13479;49.044;8.716;2022-09-29T04:16:04;47.30;;;13.73;;
25609;SDS011;13479;49.044;8.716;2022-09-29T04:18:30;47.67;;;13.60;;
25609;SDS011;13479;49.044;8.716;2022-09-29T04:20:56;50.17;;;13.03;;
25609;SDS011;13479;49.044;8.716;2022-09-29T04:23:24;46.37;;;13.57;;
25609;SDS011;13479;49.044;8.716;2022-09-29T04:25:54;53.17;;;14.27;;
25609;SDS011;13479;49.044;8.716;2022-09-29T04:28:23;39.03;;;11.80;;
25609;SDS011;13479;49.044;8.716;2022-09-29T04:30:55;45.50;;;13.27;;
25609;SDS011;13479;49.044;8.716;2022-09-29T04:33:21;37.50;;;11.33;;
25609;SDS011;13479;49.044;8.716;2022-09-29T04:35:46;39.57;;;11.70;;
25609;SDS011;13479;49.044;8.716;2022-09-29T04:38:11;38.23;;;11.10;;
25609;SDS011;13479;49.044;8.716;2022-09-29T04:40:37;39.03;;;11.90;;
25609;SDS011;13479;49.044;8.716;2022-09-29T04:43:02;39.63;;;11.67;;
25609;SDS011;13479;49.044;8.716;2022-09-29T04:45:28;46.70;;;12.20;;
25609;SDS011;13479;49.044;8.716;2022-09-29T04:47:54;39.13;;;11.60;;
25609;SDS011;13479;49.044;8.716;2022-09-29T04:50:19;45.03;;;12.20;;
25609;SDS011;13479;49.044;8.716;2022-09-29T04:52:44;41.93;;;12.30;;
25609;SDS011;13479;49.044;8.716;2022-09-29T04:55:10;40.67;;;11.90;;
25609;SDS011;13479;49.044;8.716;2022-09-29T04:57:36;44.97;;;12.53;;
25609;SDS011;13479;49.044;8.716;2022-09-29T05:00:03;44.07;;;12.80;;
25609;SDS011;13479;49.044;8.716;2022-09-29T05:02:30;38.57;;;12.50;;
25609;SDS011;13479;49.044;8.716;2022-09-29T05:04:55;43.73;;;13.10;;
25609;SDS011;13479;49.044;8.716;2022-09-29T05:07:20;40.90;;;12.00;;
25609;SDS011;13479;49.044;8.716;2022-09-29T05:09:45;40.87;;;12.40;;
25609;SDS011;13479;49.044;8.716;2022-09-29T05:12:11;45.27;;;14.27;;
25609;SDS011;13479;49.044;8.716;2022-09-29T05:14:36;52.27;;;15.40;;
25609;SDS011;13479;49.044;8.716;2022-09-29T05:17:01;39.43;;;12.13;;
25609;SDS011;13479;49.044;8.716;2022-09-29T05:19:27;60.13;;;16.10;;
25609;SDS011;13479;49.044;8.716;2022-09-29T05:21:52;66.60;;;18.90;;
25609;SDS011;13479;49.044;8.716;2022-09-29T05:24:17;75.73;;;21.90;;
25609;SDS011;13479;49.044;8.716;2022-09-29T05:26:42;95.67;;;26.07;;
25609;SDS011;13479;49.044;8.716;2022-09-29T05:29:08;94.13;;;26.13;;
25609;SDS011;13479;49.044;8.716;2022-09-29T05:31:33;108.93;;;29.40;;
25609;SDS011;13479;49.044;8.716;2022-09-29T05:33:58;102.87;;;27.13;;
25609;SDS011;13479;49.044;8.716;2022-09-29T05:36:23;110.70;;;31.53;;
25609;SDS011;13479;49.044;8.716;2022-09-29T05:38:49;99.23;;;27.10;;
25609;SDS011;13479;49.044;8.716;2022-09-29T05:41:14;112.13;;;31.17;;
25609;SDS011;13479;49.044;8.716;2022-09-29T05:43:42;97.43;;;27.87;;
25609;SDS011;13479;49.044;8.716;2022-09-29T05:46:08;107.57;;;29.07;;
25609;SDS011;13479;49.044;8.716;2022-09-29T05:48:34;84.27;;;24.93;;
25609;SDS011;13479;49.044;8.716;2022-09-29T05:51:05;58.70;;;16.83;;
25609;SDS011;13479;49.044;8.716;2022-09-29T05:53:35;47.37;;;15.00;;
25609;SDS011;13479;49.044;8.716;2022-09-29T05:56:07;47.90;;;14.40;;
25609;SDS011;13479;49.044;8.716;2022-09-29T05:58:35;44.20;;;13.67;;
25609;SDS011;13479;49.044;8.716;2022-09-29T06:01:05;40.03;;;12.47;;
25609;SDS011;13479;49.044;8.716;2022-09-29T06:03:32;46.30;;;15.37;;
25609;SDS011;13479;49.044;8.716;2022-09-29T06:06:03;61.53;;;18.57;;
25609;SDS011;13479;49.044;8.716;2022-09-29T06:08:42;49.10;;;14.77;;
25609;SDS011;13479;49.044;8.716;2022-09-29T06:11:09;85.13;;;24.43;;
25609;SDS011;13479;49.044;8.716;2022-09-29T06:13:40;79.33;;;21.87;;
25609;SDS011;13479;49.044;8.716;2022-09-29T06:16:10;94.13;;;24.77;;
25609;SDS011;13479;49.044;8.716;2022-09-29T06:18:36;108.93;;;30.87;;
25609;SDS011;13479;49.044;8.716;2022-09-29T06:21:03;81.43;;;25.37;;
25609;SDS011;13479;49.044;8.716;2022-09-29T06:23:34;59.73;;;17.57;;
25609;SDS011;13479;49.044;8.716;2022-09-29T06:26:00;53.47;;;16.13;;
25609;SDS011;13479;49.044;8.716;2022-09-29T06:28:28;49.85;;;14.48;;
25609;SDS011;13479;49.044;8.716;2022-09-29T06:31:04;46.22;;;15.27;;
25609;SDS011;13479;49.044;8.716;2022-09-29T06:33:31;44.00;;;14.20;;
25609;SDS011;13479;49.044;8.716;2022-09-29T06:35:58;52.22;;;16.20;;
25609;SDS011;13479;49.044;8.716;2022-09-29T06:38:46;46.90;;;13.70;;
25609;SDS011;13479;49.044;8.716;2022-09-29T06:41:12;49.87;;;15.20;;
25609;SDS011;13479;49.044;8.716;2022-09-29T06:43:37;49.30;;;14.53;;
25609;SDS011;13479;49.044;8.716;2022-09-29T06:46:02;51.70;;;14.67;;
25609;SDS011;13479;49.044;8.716;2022-09-29T06:48:28;50.33;;;14.30;;
25609;SDS011;13479;49.044;8.716;2022-09-29T06:50:53;46.33;;;13.82;;
25609;SDS011;13479;49.044;8.716;2022-09-29T06:53:19;54.35;;;14.98;;
25609;SDS011;13479;49.044;8.716;2022-09-29T06:55:50;56.35;;;16.65;;
25609;SDS011;13479;49.044;8.716;2022-09-29T06:58:20;47.20;;;12.68;;
25609;SDS011;13479;49.044;8.716;2022-09-29T07:00:46;44.70;;;12.82;;
25609;SDS011;13479;49.044;8.716;2022-09-29T07:03:11;44.30;;;12.93;;
25609;SDS011;13479;49.044;8.716;2022-09-29T07:05:36;46.75;;;13.35;;
25609;SDS011;13479;49.044;8.716;2022-09-29T07:08:02;53.88;;;17.20;;
25609;SDS011;13479;49.044;8.716;2022-09-29T07:10:27;37.55;;;14.13;;
25609;SDS011;13479;49.044;8.716;2022-09-29T07:12:53;32.63;;;10.10;;
25609;SDS011;13479;49.044;8.716;2022-09-29T07:15:19;30.20;;;8.30;;
25609;SDS011;13479;49.044;8.716;2022-09-29T07:17:45;31.00;;;9.63;;
25609;SDS011;13479;49.044;8.716;2022-09-29T07:20:10;29.48;;;9.00;;
25609;SDS011;13479;49.044;8.716;2022-09-29T07:22:35;30.83;;;10.52;;
25609;SDS011;13479;49.044;8.716;2022-09-29T07:25:00;32.72;;;10.02;;
25609;SDS011;13479;49.044;8.716;2022-09-29T07:27:26;37.55;;;11.32;;
25609;SDS011;13479;49.044;8.716;2022-09-29T07:29:52;37.28;;;12.35;;
25609;SDS011;13479;49.044;8.716;2022-09-29T07:32:18;35.58;;;11.48;;
25609;SDS011;13479;49.044;8.716;2022-09-29T07:34:43;47.33;;;14.95;;
25609;SDS011;13479;49.044;8.716;2022-09-29T07:37:09;48.60;;;13.73;;
25609;SDS011;13479;49.044;8.716;2022-09-29T07:39:34;54.25;;;16.33;;
25609;SDS011;13479;49.044;8.716;2022-09-29T07:42:00;41.05;;;11.30;;
25609;SDS011;13479;49.044;8.716;2022-09-29T07:44:25;34.22;;;12.07;;
25609;SDS011;13479;49.044;8.716;2022-09-29T07:46:50;40.65;;;11.85;;
25609;SDS011;13479;49.044;8.716;2022-09-29T07:49:17;37.60;;;12.00;;
25609;SDS011;13479;49.044;8.716;2022-09-29T07:51:42;40.28;;;11.32;;
25609;SDS011;13479;49.044;8.716;2022-09-29T07:54:07;35.15;;;11.35;;
25609;SDS011;13479;49.044;8.716;2022-09-29T07:56:33;32.30;;;10.07;;
25609;SDS011;13479;49.044;8.716;2022-09-29T07:58:59;28.75;;;8.95;;
25609;SDS011;13479;49.044;8.716;2022-09-29T08:01:26;24.52;;;7.70;;
25609;SDS011;13479;49.044;8.716;2022-09-29T08:03:52;28.60;;;8.63;;
25609;SDS011;13479;49.044;8.716;2022-09-29T08:06:18;21.98;;;7.85;;
25609;SDS011;13479;49.044;8.716;2022-09-29T08:08:44;16.73;;;6.65;;
25609;SDS011;13479;49.044;8.716;2022-09-29T08:11:10;20.58;;;6.57;;
25609;SDS011;13479;49.044;8.716;2022-09-29T08:13:37;16.75;;;5.90;;
25609;SDS011;13479;49.044;8.716;2022-09-29T08:16:04;15.85;;;5.60;;
25609;SDS011;13479;49.044;8.716;2022-09-29T08:18:31;14.82;;;5.15;;
25609;SDS011;13479;49.044;8.716;2022-09-29T08:20:58;12.55;;;4.90;;
25609;SDS011;13479;49.044;8.716;2022-09-29T08:23:23;13.73;;;4.43;;
25609;SDS011;13479;49.044;8.716;2022-09-29T08:25:49;12.27;;;3.88;;
25609;SDS011;13479;49.044;8.716;2022-09-29T08:28:22;9.30;;;3.30;;
25609;SDS011;13479;49.044;8.716;2022-09-29T08:30:47;9.38;;;3.58;;
25609;SDS011;13479;49.044;8.716;2022-09-29T08:33:13;9.82;;;4.18;;
25609;SDS011;13479;49.044;8.716;2022-09-29T08:35:40;11.77;;;4.55;;
25609;SDS011;13479;49.044;8.716;2022-09-29T08:38:05;9.10;;;3.85;;
25609;SDS011;13479;49.044;8.716;2022-09-29T08:40:30;10.55;;;3.58;;
25609;SDS011;13479;49.044;8.716;2022-09-29T08:43:05;13.73;;;5.45;;
25609;SDS011;13479;49.044;8.716;2022-09-29T08:45:42;9.02;;;3.25;;
25609;SDS011;13479;49.044;8.716;2022-09-29T08:48:18;8.10;;;3.38;;
25609;SDS011;13479;49.044;8.716;2022-09-29T08:50:48;11.30;;;3.72;;
25609;SDS011;13479;49.044;8.716;2022-09-29T08:53:37;17.95;;;7.88;;
25609;SDS011;13479;49.044;8.716;2022-09-29T08:56:12;9.60;;;3.45;;
25609;SDS011;13479;49.044;8.716;2022-09-29T08:58:39;10.60;;;4.60;;
25609;SDS011;13479;49.044;8.716;2022-09-29T09:26:26;4.40;;;2.30;;
25609;SDS011;13479;49.044;8.716;2022-09-29T09:29:03;5.85;;;2.47;;
25609;SDS011;13479;49.044;8.716;2022-09-29T09:31:39;5.13;;;2.25;;
25609;SDS011;13479;49.044;8.716;2022-09-29T09:34:13;7.32;;;2.50;;
25609;SDS011;13479;49.044;8.716;2022-09-29T09:36:49;5.53;;;2.17;;
25609;SDS011;13479;49.044;8.716;2022-09-29T09:42:13;7.63;;;2.50;;
25609;SDS011;13479;49.044;8.716;2022-09-29T09:44:44;5.88;;;2.13;;
25609;SDS011;13479;49.044;8.716;2022-09-29T09:52:46;10.23;;;2.60;;
25609;SDS011;13479;49.044;8.716;2022-09-29T09:57:52;7.40;;;3.10;;
25609;SDS011;13479;49.044;8.716;2022-09-29T10:00:21;6.85;;;3.20;;
25609;SDS011;13479;49.044;8.716;2022-09-29T10:02:51;8.52;;;2.80;;
25609;SDS011;13479;49.044;8.716;2022-09-29T10:05:19;12.13;;;3.22;;
25609;SDS011;13479;49.044;8.716;2022-09-29T10:07:48;7.50;;;3.20;;
25609;SDS011;13479;49.044;8.716;2022-09-29T10:10:17;8.45;;;2.80;;
25609;SDS011;13479;49.044;8.716;2022-09-29T10:12:45;8.63;;;2.88;;
25609;SDS011;13479;49.044;8.716;2022-09-29T10:15:14;7.53;;;2.90;;
25609;SDS011;13479;49.044;8.716;2022-09-29T10:17:45;6.40;;;2.72;;
25609;SDS011;13479;49.044;8.716;2022-09-29T10:20:27;7.28;;;2.72;;
25609;SDS011;13479;49.044;8.716;2022-09-29T10:23:17;7.90;;;2.85;;
25609;SDS011;13479;49.044;8.716;2022-09-29T10:28:42;7.25;;;2.75;;
25609;SDS011;13479;49.044;8.716;2022-09-29T10:31:20;10.20;;;2.72;;
25609;SDS011;13479;49.044;8.716;2022-09-29T10:33:53;8.98;;;2.65;;
25609;SDS011;13479;49.044;8.716;2022-09-29T10:36:21;9.30;;;2.78;;
25609;SDS011;13479;49.044;8.716;2022-09-29T10:38:49;6.28;;;2.67;;
25609;SDS011;13479;49.044;8.716;2022-09-29T10:41:16;7.40;;;2.72;;
25609;SDS011;13479;49.044;8.716;2022-09-29T10:43:43;7.15;;;2.60;;
25609;SDS011;13479;49.044;8.716;2022-09-29T10:52:01;7.53;;;2.55;;
25609;SDS011;13479;49.044;8.716;2022-09-29T10:54:29;8.13;;;3.00;;
25609;SDS011;13479;49.044;8.716;2022-09-29T10:57:11;9.52;;;3.15;;
25609;SDS011;13479;49.044;8.716;2022-09-29T10:59:46;20.38;;;4.70;;
25609;SDS011;13479;49.044;8.716;2022-09-29T11:02:20;5.57;;;2.40;;
25609;SDS011;13479;49.044;8.716;2022-09-29T11:04:49;8.13;;;2.38;;
25609;SDS011;13479;49.044;8.716;2022-09-29T11:07:16;6.47;;;2.53;;
25609;SDS011;13479;49.044;8.716;2022-09-29T11:09:44;12.13;;;2.85;;
25609;SDS011;13479;49.044;8.716;2022-09-29T11:12:27;9.77;;;3.20;;
25609;SDS011;13479;49.044;8.716;2022-09-29T11:15:00;6.25;;;2.10;;
25609;SDS011;13479;49.044;8.716;2022-09-29T11:17:27;7.68;;;2.00;;
25609;SDS011;13479;49.044;8.716;2022-09-29T11:19:59;7.47;;;2.17;;
25609;SDS011;13479;49.044;8.716;2022-09-29T11:28:28;6.18;;;1.83;;
25609;SDS011;13479;49.044;8.716;2022-09-29T11:31:20;6.18;;;2.17;;
25609;SDS011;13479;49.044;8.716;2022-09-29T11:36:46;8.05;;;1.80;;
25609;SDS011;13479;49.044;8.716;2022-09-29T11:39:38;3.45;;;1.48;;
25609;SDS011;13479;49.044;8.716;2022-09-29T11:42:38;6.90;;;1.80;;
25609;SDS011;13479;49.044;8.716;2022-09-29T11:45:21;5.53;;;1.70;;
25609;SDS011;13479;49.044;8.716;2022-09-29T11:59:50;2.78;;;1.20;;
25609;SDS011;13479;49.044;8.716;2022-09-29T12:02:36;4.25;;;1.23;;
25609;SDS011;13479;49.044;8.716;2022-09-29T12:05:43;4.22;;;1.10;;
25609;SDS011;13479;49.044;8.716;2022-09-29T12:08:52;4.20;;;1.40;;
25609;SDS011;13479;49.044;8.716;2022-09-29T12:14:04;4.47;;;1.33;;
25609;SDS011;13479;49.044;8.716;2022-09-29T12:16:41;6.38;;;1.23;;
25609;SDS011;13479;49.044;8.716;2022-09-29T12:19:15;1.95;;;0.90;;
25609;SDS011;13479;49.044;8.716;2022-09-29T12:21:47;6.07;;;1.23;;
25609;SDS011;13479;49.044;8.716;2022-09-29T12:24:20;6.25;;;1.20;;
25609;SDS011;13479;49.044;8.716;2022-09-29T12:26:57;3.50;;;1.50;;
25609;SDS011;13479;49.044;8.716;2022-09-29T12:29:33;5.20;;;2.30;;
25609;SDS011;13479;49.044;8.716;2022-09-29T12:32:13;3.85;;;1.20;;
25609;SDS011;13479;49.044;8.716;2022-09-29T12:40:57;4.72;;;1.25;;
25609;SDS011;13479;49.044;8.716;2022-09-29T12:43:13;4.68;;;1.23;;
25609;SDS011;13479;49.044;8.716;2022-09-29T12:48:26;5.30;;;1.23;;
25609;SDS011;13479;49.044;8.716;2022-09-29T12:51:08;2.63;;;0.93;;
25609;SDS011;13479;49.044;8.716;2022-09-29T12:56:37;5.95;;;1.10;;
25609;SDS011;13479;49.044;8.716;2022-09-29T12:59:12;3.65;;;1.08;;
25609;SDS011;13479;49.044;8.716;2022-09-29T13:01:49;3.92;;;0.98;;
25609;SDS011;13479;49.044;8.716;2022-09-29T13:10:05;2.72;;;1.08;;
25609;SDS011;13479;49.044;8.716;2022-09-29T13:15:29;4.15;;;1.35;;
25609;SDS011;13479;49.044;8.716;2022-09-29T13:21:13;6.25;;;1.45;;
25609;SDS011;13479;49.044;8.716;2022-09-29T13:23:57;3.53;;;1.00;;
25609;SDS011;13479;49.044;8.716;2022-09-29T13:26:53;3.50;;;1.10;;
25609;SDS011;13479;49.044;8.716;2022-09-29T13:29:50;3.60;;;1.30;;
25609;SDS011;13479;49.044;8.716;2022-09-29T13:32:20;4.78;;;1.00;;
25609;SDS011;13479;49.044;8.716;2022-09-29T13:34:51;4.47;;;1.17;;
25609;SDS011;13479;49.044;8.716;2022-09-29T13:37:21;3.28;;;1.17;;
25609;SDS011;13479;49.044;8.716;2022-09-29T13:39:53;4.65;;;1.20;;
25609;SDS011;13479;49.044;8.716;2022-09-29T13:50:51;5.32;;;1.33;;
25609;SDS011;13479;49.044;8.716;2022-09-29T13:58:25;5.05;;;1.52;;
25609;SDS011;13479;49.044;8.716;2022-09-29T14:00:57;5.57;;;1.30;;
25609;SDS011;13479;49.044;8.716;2022-09-29T14:03:34;3.95;;;1.20;;
25609;SDS011;13479;49.044;8.716;2022-09-29T14:08:48;2.70;;;1.00;;
25609;SDS011;13479;49.044;8.716;2022-09-29T14:11:19;2.58;;;0.90;;
25609;SDS011;13479;49.044;8.716;2022-09-29T14:13:56;4.45;;;1.13;;
25609;SDS011;13479;49.044;8.716;2022-09-29T14:22:02;2.78;;;1.00;;
25609;SDS011;13479;49.044;8.716;2022-09-29T14:29:50;2.03;;;0.80;;
25609;SDS011;13479;49.044;8.716;2022-09-29T14:32:21;5.10;;;1.00;;
25609;SDS011;13479;49.044;8.716;2022-09-29T14:34:56;2.33;;;0.98;;
25609;SDS011;13479;49.044;8.716;2022-09-29T14:37:22;7.38;;;2.88;;
25609;SDS011;13479;49.044;8.716;2022-09-29T14:39:48;3.78;;;0.88;;
25609;SDS011;13479;49.044;8.716;2022-09-29T14:42:34;2.65;;;1.10;;
25609;SDS011;13479;49.044;8.716;2022-09-29T14:45:00;3.97;;;1.05;;
25609;SDS011;13479;49.044;8.716;2022-09-29T14:47:55;5.10;;;1.30;;
25609;SDS011;13479;49.044;8.716;2022-09-29T14:51:00;2.75;;;0.88;;
25609;SDS011;13479;49.044;8.716;2022-09-29T14:57:02;4.20;;;1.20;;
25609;SDS011;13479;49.044;8.716;2022-09-29T15:02:25;3.20;;;1.15;;
25609;SDS011;13479;49.044;8.716;2022-09-29T15:04:53;3.97;;;1.30;;
25609;SDS011;13479;49.044;8.716;2022-09-29T15:07:20;4.80;;;1.23;;
25609;SDS011;13479;49.044;8.716;2022-09-29T15:09:51;3.08;;;1.00;;
25609;SDS011;13479;49.044;8.716;2022-09-29T15:12:22;4.07;;;1.27;;
25609;SDS011;13479;49.044;8.716;2022-09-29T15:14:50;5.78;;;1.20;;
25609;SDS011;13479;49.044;8.716;2022-09-29T15:17:17;4.88;;;1.02;;
25609;SDS011;13479;49.044;8.716;2022-09-29T15:19:51;3.28;;;1.10;;
25609;SDS011;13479;49.044;8.716;2022-09-29T15:28:05;4.20;;;1.08;;
25609;SDS011;13479;49.044;8.716;2022-09-29T15:30:40;6.65;;;1.23;;
25609;SDS011;13479;49.044;8.716;2022-09-29T15:35:43;3.47;;;1.13;;
25609;SDS011;13479;49.044;8.716;2022-09-29T15:38:15;2.55;;;1.08;;
25609;SDS011;13479;49.044;8.716;2022-09-29T15:40:53;4.00;;;1.10;;
25609;SDS011;13479;49.044;8.716;2022-09-29T15:43:21;3.03;;;1.10;;
25609;SDS011;13479;49.044;8.716;2022-09-29T15:45:54;4.97;;;1.40;;
25609;SDS011;13479;49.044;8.716;2022-09-29T15:48:26;4.80;;;1.20;;
25609;SDS011;13479;49.044;8.716;2022-09-29T15:50:53;3.83;;;1.15;;
25609;SDS011;13479;49.044;8.716;2022-09-29T15:53:20;5.78;;;1.40;;
25609;SDS011;13479;49.044;8.716;2022-09-29T15:55:48;5.82;;;1.40;;
25609;SDS011;13479;49.044;8.716;2022-09-29T16:01:01;3.35;;;1.20;;
25609;SDS011;13479;49.044;8.716;2022-09-29T16:03:34;4.00;;;1.40;;
25609;SDS011;13479;49.044;8.716;2022-09-29T16:08:53;4.07;;;1.40;;
25609;SDS011;13479;49.044;8.716;2022-09-29T16:11:23;6.32;;;1.65;;
25609;SDS011;13479;49.044;8.716;2022-09-29T16:13:52;1.98;;;0.88;;
25609;SDS011;13479;49.044;8.716;2022-09-29T16:16:32;5.40;;;1.23;;
25609;SDS011;13479;49.044;8.716;2022-09-29T16:19:01;4.10;;;1.08;;
25609;SDS011;13479;49.044;8.716;2022-09-29T16:21:32;2.30;;;1.00;;
25609;SDS011;13479;49.044;8.716;2022-09-29T16:24:03;4.03;;;1.08;;
25609;SDS011;13479;49.044;8.716;2022-09-29T16:31:35;5.28;;;1.50;;
25609;SDS011;13479;49.044;8.716;2022-09-29T16:34:03;9.15;;;3.70;;
25609;SDS011;13479;49.044;8.716;2022-09-29T16:36:45;7.28;;;2.88;;
25609;SDS011;13479;49.044;8.716;2022-09-29T16:39:13;6.25;;;1.15;;
25609;SDS011;13479;49.044;8.716;2022-09-29T16:41:40;4.57;;;1.13;;
25609;SDS011;13479;49.044;8.716;2022-09-29T16:49:26;5.10;;;1.25;;
25609;SDS011;13479;49.044;8.716;2022-09-29T16:51:54;3.17;;;1.10;;
25609;SDS011;13479;49.044;8.716;2022-09-29T16:54:26;4.00;;;1.13;;
25609;SDS011;13479;49.044;8.716;2022-09-29T16:57:17;5.93;;;1.17;;
25609;SDS011;13479;49.044;8.716;2022-09-29T16:59:43;7.70;;;1.40;;
25609;SDS011;13479;49.044;8.716;2022-09-29T17:02:10;2.33;;;1.02;;
25609;SDS011;13479;49.044;8.716;2022-09-29T17:04:36;4.35;;;1.75;;
25609;SDS011;13479;49.044;8.716;2022-09-29T17:07:01;4.75;;;1.20;;
25609;SDS011;13479;49.044;8.716;2022-09-29T17:09:28;5.55;;;1.10;;
25609;SDS011;13479;49.044;8.716;2022-09-29T17:11:54;5.00;;;1.20;;
25609;SDS011;13479;49.044;8.716;2022-09-29T17:14:19;4.18;;;1.00;;
25609;SDS011;13479;49.044;8.716;2022-09-29T17:16:48;7.10;;;1.63;;
25609;SDS011;13479;49.044;8.716;2022-09-29T17:19:17;9.77;;;4.00;;
25609;SDS011;13479;49.044;8.716;2022-09-29T17:21:44;5.68;;;2.05;;
25609;SDS011;13479;49.044;8.716;2022-09-29T17:24:09;6.38;;;1.30;;
25609;SDS011;13479;49.044;8.716;2022-09-29T17:26:38;4.25;;;1.27;;
25609;SDS011;13479;49.044;8.716;2022-09-29T17:29:25;6.78;;;1.33;;
25609;SDS011;13479;49.044;8.716;2022-09-29T17:31:50;6.72;;;1.40;;
25609;SDS011;13479;49.044;8.716;2022-09-29T17:34:16;2.13;;;1.20;;
25609;SDS011;13479;49.044;8.716;2022-09-29T17:36:44;5.75;;;1.40;;
25609;SDS011;13479;49.044;8.716;2022-09-29T17:39:10;4.00;;;1.40;;
25609;SDS011;13479;49.044;8.716;2022-09-29T17:41:35;3.97;;;1.30;;
25609;SDS011;13479;49.044;8.716;2022-09-29T17:44:00;5.18;;;1.60;;
25609;SDS011;13479;49.044;8.716;2022-09-29T17:46:28;6.15;;;1.58;;
25609;SDS011;13479;49.044;8.716;2022-09-29T17:48:53;6.18;;;3.10;;
25609;SDS011;13479;49.044;8.716;2022-09-29T17:51:19;5.78;;;3.28;;
25609;SDS011;13479;49.044;8.716;2022-09-29T17:53:44;5.78;;;3.53;;
25609;SDS011;13479;49.044;8.716;2022-09-29T17:56:29;6.60;;;5.07;;
25609;SDS011;13479;49.044;8.716;2022-09-29T17:59:01;7.60;;;2.30;;
25609;SDS011;13479;49.044;8.716;2022-09-29T18:01:29;4.43;;;1.92;;
25609;SDS011;13479;49.044;8.716;2022-09-29T18:03:58;8.18;;;2.50;;
25609;SDS011;13479;49.044;8.716;2022-09-29T18:06:24;6.43;;;2.25;;
25609;SDS011;13479;49.044;8.716;2022-09-29T18:08:51;4.30;;;2.40;;
25609;SDS011;13479;49.044;8.716;2022-09-29T18:11:17;5.10;;;2.60;;
25609;SDS011;13479;49.044;8.716;2022-09-29T18:13:44;4.95;;;2.70;;
25609;SDS011;13479;49.044;8.716;2022-09-29T18:16:11;6.10;;;2.85;;
25609;SDS011;13479;49.044;8.716;2022-09-29T18:18:38;7.78;;;3.33;;
25609;SDS011;13479;49.044;8.716;2022-09-29T18:21:04;4.50;;;3.10;;
25609;SDS011;13479;49.044;8.716;2022-09-29T18:23:30;7.85;;;3.28;;
25609;SDS011;13479;49.044;8.716;2022-09-29T18:25:55;6.45;;;3.25;;
25609;SDS011;13479;49.044;8.716;2022-09-29T18:28:20;5.10;;;3.00;;
25609;SDS011;13479;49.044;8.716;2022-09-29T18:30:47;7.65;;;3.03;;
25609;SDS011;13479;49.044;8.716;2022-09-29T18:33:15;5.00;;;2.97;;
25609;SDS011;13479;49.044;8.716;2022-09-29T18:35:42;6.05;;;3.20;;
25609;SDS011;13479;49.044;8.716;2022-09-29T18:38:09;7.07;;;3.20;;
25609;SDS011;13479;49.044;8.716;2022-09-29T18:40:35;4.75;;;3.20;;
25609;SDS011;13479;49.044;8.716;2022-09-29T18:43:02;4.93;;;3.08;;
25609;SDS011;13479;49.044;8.716;2022-09-29T18:45:30;6.60;;;3.42;;
25609;SDS011;13479;49.044;8.716;2022-09-29T18:47:59;6.38;;;2.85;;
25609;SDS011;13479;49.044;8.716;2022-09-29T18:50:30;5.25;;;3.17;;
25609;SDS011;13479;49.044;8.716;2022-09-29T18:53:00;6.57;;;3.50;;
25609;SDS011;13479;49.044;8.716;2022-09-29T18:55:26;4.18;;;2.70;;
25609;SDS011;13479;49.044;8.716;2022-09-29T18:57:54;4.78;;;2.85;;
25609;SDS011;13479;49.044;8.716;2022-09-29T19:00:23;5.70;;;2.95;;
25609;SDS011;13479;49.044;8.716;2022-09-29T19:02:50;4.97;;;2.35;;
25609;SDS011;13479;49.044;8.716;2022-09-29T19:05:16;6.25;;;3.38;;
25609;SDS011;13479;49.044;8.716;2022-09-29T19:07:53;7.32;;;2.90;;
25609;SDS011;13479;49.044;8.716;2022-09-29T19:10:20;7.25;;;2.95;;
25609;SDS011;13479;49.044;8.716;2022-09-29T19:12:47;5.63;;;3.08;;
25609;SDS011;13479;49.044;8.716;2022-09-29T19:15:14;7.88;;;2.90;;
25609;SDS011;13479;49.044;8.716;2022-09-29T19:17:41;4.70;;;2.45;;
25609;SDS011;13479;49.044;8.716;2022-09-29T19:20:07;5.15;;;2.55;;
25609;SDS011;13479;49.044;8.716;2022-09-29T19:22:33;4.57;;;2.47;;
25609;SDS011;13479;49.044;8.716;2022-09-29T19:25:04;3.40;;;2.13;;
25609;SDS011;13479;49.044;8.716;2022-09-29T19:27:31;5.72;;;2.50;;
25609;SDS011;13479;49.044;8.716;2022-09-29T19:29:56;5.45;;;2.92;;
25609;SDS011;13479;49.044;8.716;2022-09-29T19:32:21;6.18;;;3.00;;
25609;SDS011;13479;49.044;8.716;2022-09-29T19:34:47;4.93;;;3.00;;
25609;SDS011;13479;49.044;8.716;2022-09-29T19:37:13;5.60;;;3.00;;
25609;SDS011;13479;49.044;8.716;2022-09-29T19:39:39;6.45;;;3.38;;
25609;SDS011;13479;49.044;8.716;2022-09-29T19:42:04;6.65;;;3.05;;
25609;SDS011;13479;49.044;8.716;2022-09-29T19:44:30;6.35;;;2.95;;
25609;SDS011;13479;49.044;8.716;2022-09-29T19:46:56;10.45;;;3.70;;
25609;SDS011;13479;49.044;8.716;2022-09-29T19:49:24;10.70;;;4.20;;
25609;SDS011;13479;49.044;8.716;2022-09-29T19:51:49;9.07;;;4.10;;
25609;SDS011;13479;49.044;8.716;2022-09-29T19:54:17;10.02;;;3.70;;
25609;SDS011;13479;49.044;8.716;2022-09-29T19:56:49;8.70;;;4.22;;
25609;SDS011;13479;49.044;8.716;2022-09-29T19:59:23;7.95;;;4.15;;
25609;SDS011;13479;49.044;8.716;2022-09-29T20:01:52;8.30;;;3.88;;
25609;SDS011;13479;49.044;8.716;2022-09-29T20:04:19;9.48;;;4.40;;
25609;SDS011;13479;49.044;8.716;2022-09-29T20:06:46;12.73;;;4.30;;
25609;SDS011;13479;49.044;8.716;2022-09-29T20:09:12;6.22;;;4.15;;
25609;SDS011;13479;49.044;8.716;2022-09-29T20:11:37;6.18;;;3.53;;
25609;SDS011;13479;49.044;8.716;2022-09-29T20:14:05;9.93;;;3.70;;
25609;SDS011;13479;49.044;8.716;2022-09-29T20:16:33;16.10;;;4.30;;
25609;SDS011;13479;49.044;8.716;2022-09-29T20:19:01;13.60;;;5.20;;
25609;SDS011;13479;49.044;8.716;2022-09-29T20:21:28;9.77;;;5.90;;
25609;SDS011;13479;49.044;8.716;2022-09-29T20:23:55;10.90;;;6.35;;
25609;SDS011;13479;49.044;8.716;2022-09-29T20:26:21;7.45;;;4.10;;
25609;SDS011;13479;49.044;8.716;2022-09-29T20:28:49;9.18;;;5.32;;
25609;SDS011;13479;49.044;8.716;2022-09-29T20:31:15;8.48;;;4.40;;
25609;SDS011;13479;49.044;8.716;2022-09-29T20:33:40;7.05;;;4.30;;
25609;SDS011;13479;49.044;8.716;2022-09-29T20:36:07;7.40;;;4.63;;
25609;SDS011;13479;49.044;8.716;2022-09-29T20:38:33;8.60;;;5.10;;
25609;SDS011;13479;49.044;8.716;2022-09-29T20:41:03;5.70;;;3.72;;
25609;SDS011;13479;49.044;8.716;2022-09-29T20:43:28;9.88;;;5.10;;
25609;SDS011;13479;49.044;8.716;2022-09-29T20:45:58;11.23;;;5.28;;
25609;SDS011;13479;49.044;8.716;2022-09-29T20:48:31;9.82;;;5.38;;
25609;SDS011;13479;49.044;8.716;2022-09-29T20:50:58;13.13;;;5.40;;
25609;SDS011;13479;49.044;8.716;2022-09-29T20:53:26;9.43;;;4.32;;
25609;SDS011;13479;49.044;8.716;2022-09-29T20:56:02;8.35;;;3.90;;
25609;SDS011;13479;49.044;8.716;2022-09-29T20:58:30;8.05;;;4.25;;
